ADDS TAF Board (Experimental) INFO Settings
IDs:

KMCI - Kansas City Intl, MO, US

Issued at 2337 UTC 27 May 2015
Updated at: 0202 UTC 28 May 2015
Time0153Z 28/03Z 28/04Z 28/05Z 28/06Z 28/07Z 28/08Z 28/09Z 28/10Z 28/11Z 28/12Z 28/13Z 28/14Z 28/15Z
Type OBS PRVL PRVL PRVL PRVL PRVL PRVL PRVL PRVL
  [TEMP]  
PRVL
  [TEMP]  
PRVL
  [TEMP]  
PRVL
  [TEMP]  
PRVL PRVL
VIS 10 >6 >6 >6 >6 >6 >6 >6 >6
  [6.21]  
>6
  [6.21]  
>6
  [6.21]  
>6
  [6.21]  
>6 >6
CIG 200 250 250 250 250 250 250 250 250
  [30]  
250
  [30]  
250
  [30]  
250
  [30]  
180 180
Cover BKN BKN BKN BKN BKN BKN BKN BKN BKN
  [BKN]  
BKN
  [BKN]  
BKN
  [BKN]  
BKN
  [BKN]  
BKN BKN
FltCat VFR VFR VFR VFR VFR VFR VFR VFR VFR
  [MVFR]  
VFR
  [MVFR]  
VFR
  [MVFR]  
VFR
  [MVFR]  
VFR VFR
WX -- -- -- -- -- -- -- -- --
  [--]  
--
  [--]  
--
  [--]  
--
  [--]  
-- --
WDir 140 180 180 180 180 180 180 180 180
[190]
180
[190]
180
[190]
180
[190]
150 150
WSpd 8 5 5 5 5 5 5 5 5
  [8]  
5
  [8]  
5
  [8]  
5
  [8]  
11 11
WGst -- -- -- -- -- -- -- -- --
  [--]  
--
  [--]  
--
  [--]  
--
  [--]  
-- --
R01/19
XWnd -6 -1 -1 -1 -1 -1 -1 -1 -1 -1 -1 -1 -8 -8
XGst -- -- -- -- -- -- -- -- 0 0 0 0 -- --
HWnd -5 -5 -5 -5 -5 -5 -5 -5 -5 -5 -5 -5 -8 -8
HGst -- -- -- -- -- -- -- -- 0 0 0 0 -- --
R09/27
XWnd -6 -5 -5 -5 -5 -5 -5 -5 -5 -5 -5 -5 -9 -9
XGst -- -- -- -- -- -- -- -- 0 0 0 0 -- --
HWnd 6 1 1 1 1 1 1 1 1 1 1 1 6 6
HGst -- -- -- -- -- -- -- -- 0 0 0 0 -- --

NOTE: TEMPO conditions in [brackets]. Keep in mind TEMPO conditions might be better (lower impact) than prevailing conditions.

Raw TAF
KMCI 272337Z 2800/2824 18005KT P6SM BKN250
  TEMPO 2810/2814 19008KT P6SM BKN030
  FM281400 15011KT P6SM SCT035 BKN180
  FM282200 18013KT P6SM VCTS BKN035CB


Raw METAR
KMCI 280153Z 14008KT 10SM BKN200 23/12 A3007 RMK AO2 SLP174 T02280122
KMCI 280053Z 11008KT 10SM BKN200 25/11 A3006 RMK AO2 SLP171 T02500106
KMCI 272353Z 15005KT 10SM SCT200 26/11 A3006 RMK AO2 SLP171 T02610111 10272 20256 56009

METAR Board
Radar Display
Forecast Discussion

TAF Board Legend

Potential Impact
Threat None Slight Moderate High
Visibility (sm) ≥5.1 5.1>X≥3 3>X≥1 <1
Ceiling (100 ft) ≥30.1 30.1>X≥10 10>X≥5 <5
Wind Speed (kt) <10 10≤X<20 20≤X<30 ≥30
Wind Gust (kt) <15 15≤X<25 25≤X<35 ≥35
Weather No Wx Reported VCTS,-TS,-FZRA,SN TS,FZRA +TS,+FZRA,+SN